N150JX KISM-KLAL
Flight info
| Callsign | N150JX |
|---|---|
| Flight time | 0h 41m |
| Altitude | VFR/025 |
| Route | |
| Aircraft | C150/L-DOV/C |
Departure
| Time | 2026-04-22 00:50 |
|---|---|
| Airport | Kissimmee Gateway Airport (KISM) |
Arrival
| Time | 2026-04-22 01:32 |
|---|---|
| Airport | Lakeland Linder International Airport (KLAL) |
| Time | Latitude | Longitude | Altitude | Speed | Heading |
|---|---|---|---|---|---|
| 2026-04-22 00:43 | 28.28995 | -81.44242 | 84 ft | 0 kts | 181° |
| 2026-04-22 00:44 | 28.28992 | -81.44251 | 84 ft | 1 kts | 324° |
| 2026-04-22 00:44 | 28.28993 | -81.44251 | 84 ft | 0 kts | 325° |
| 2026-04-22 00:45 | 28.28997 | -81.44256 | 88 ft | 3 kts | 315° |
| 2026-04-22 00:46 | 28.28998 | -81.44253 | 88 ft | 7 kts | 76° |
| 2026-04-22 00:46 | 28.29000 | -81.44200 | 84 ft | 6 kts | 89° |
| 2026-04-22 00:46 | 28.29011 | -81.44152 | 85 ft | 7 kts | 64° |
| 2026-04-22 00:46 | 28.29058 | -81.44091 | 85 ft | 13 kts | 36° |
| 2026-04-22 00:47 | 28.29139 | -81.44042 | 83 ft | 8 kts | 29° |
| 2026-04-22 00:47 | 28.29143 | -81.44039 | 83 ft | 0 kts | 39° |
| 2026-04-22 00:47 | 28.29157 | -81.44020 | 83 ft | 8 kts | 59° |
| 2026-04-22 00:47 | 28.29226 | -81.44036 | 83 ft | 13 kts | 328° |
| 2026-04-22 00:48 | 28.29306 | -81.44091 | 83 ft | 14 kts | 330° |
| 2026-04-22 00:48 | 28.29390 | -81.44151 | 83 ft | 15 kts | 327° |
| 2026-04-22 00:48 | 28.29480 | -81.44215 | 83 ft | 16 kts | 327° |
| 2026-04-22 00:48 | 28.29557 | -81.44258 | 85 ft | 8 kts | 24° |
| 2026-04-22 00:49 | 28.29580 | -81.44236 | 84 ft | 4 kts | 58° |
| 2026-04-22 00:49 | 28.29604 | -81.44194 | 84 ft | 9 kts | 64° |
| 2026-04-22 00:49 | 28.29568 | -81.44127 | 80 ft | 14 kts | 146° |
| 2026-04-22 00:49 | 28.29349 | -81.43974 | 99 ft | 53 kts | 150° |
| 2026-04-22 00:50 | 28.29024 | -81.43809 | 277 ft | 44 kts | 143° |
| 2026-04-22 00:50 | 28.28726 | -81.43627 | 408 ft | 57 kts | 139° |
| 2026-04-22 00:50 | 28.28414 | -81.43344 | 678 ft | 58 kts | 132° |
| 2026-04-22 00:50 | 28.28147 | -81.42960 | 808 ft | 68 kts | 124° |
| 2026-04-22 00:51 | 28.27719 | -81.42637 | 937 ft | 80 kts | 146° |
| 2026-04-22 00:51 | 28.27160 | -81.42388 | 1011 ft | 91 kts | 149° |
| 2026-04-22 00:51 | 28.26586 | -81.42076 | 1155 ft | 90 kts | 144° |
| 2026-04-22 00:51 | 28.26058 | -81.41769 | 1433 ft | 85 kts | 141° |
| 2026-04-22 00:52 | 28.25586 | -81.41412 | 1692 ft | 78 kts | 135° |
| 2026-04-22 00:52 | 28.25146 | -81.41040 | 1745 ft | 85 kts | 149° |
| 2026-04-22 00:52 | 28.24512 | -81.41113 | 1820 ft | 100 kts | 186° |
| 2026-04-22 00:52 | 28.24008 | -81.41697 | 1891 ft | 107 kts | 225° |
| 2026-04-22 00:53 | 28.23574 | -81.42386 | 2061 ft | 111 kts | 227° |
| 2026-04-22 00:53 | 28.23071 | -81.43106 | 2176 ft | 116 kts | 226° |
| 2026-04-22 00:53 | 28.22586 | -81.43823 | 2322 ft | 114 kts | 224° |
| 2026-04-22 00:53 | 28.22070 | -81.44527 | 2384 ft | 116 kts | 225° |
| 2026-04-22 00:54 | 28.21611 | -81.45270 | 2526 ft | 116 kts | 231° |
| 2026-04-22 00:54 | 28.21146 | -81.46037 | 2617 ft | 117 kts | 225° |
| 2026-04-22 00:54 | 28.20600 | -81.46680 | 2832 ft | 112 kts | 213° |
| 2026-04-22 00:54 | 28.19980 | -81.47237 | 3016 ft | 119 kts | 221° |
| 2026-04-22 00:55 | 28.19568 | -81.48049 | 3126 ft | 117 kts | 238° |
| 2026-04-22 00:55 | 28.19174 | -81.48873 | 3127 ft | 121 kts | 234° |
| 2026-04-22 00:55 | 28.18234 | -81.50501 | 3281 ft | 124 kts | 230° |
| 2026-04-22 00:56 | 28.17831 | -81.51360 | 3373 ft | 122 kts | 247° |
| 2026-04-22 00:56 | 28.17613 | -81.52260 | 3416 ft | 120 kts | 272° |
| 2026-04-22 00:56 | 28.17888 | -81.53151 | 3381 ft | 123 kts | 303° |
| 2026-04-22 00:56 | 28.18375 | -81.53940 | 3381 ft | 120 kts | 316° |
| 2026-04-22 00:57 | 28.18927 | -81.54651 | 3409 ft | 121 kts | 320° |
| 2026-04-22 00:57 | 28.19484 | -81.55369 | 3492 ft | 123 kts | 316° |
| 2026-04-22 00:57 | 28.20046 | -81.56110 | 3498 ft | 126 kts | 320° |
| 2026-04-22 00:57 | 28.20657 | -81.56799 | 3584 ft | 120 kts | 326° |
| 2026-04-22 00:58 | 28.22634 | -81.58723 | 3704 ft | 114 kts | 333° |
| 2026-04-22 00:58 | 28.25224 | -81.60717 | 3943 ft | 112 kts | 339° |
| 2026-04-22 00:58 | 28.27229 | -81.61534 | 3923 ft | 115 kts | 356° |
| 2026-04-22 00:58 | 28.28000 | -81.61713 | 3900 ft | 107 kts | 1° |
| 2026-04-22 00:59 | 28.28705 | -81.61839 | 3924 ft | 105 kts | 2° |
| 2026-04-22 00:59 | 28.29309 | -81.62261 | 3968 ft | 122 kts | 297° |
| 2026-04-22 00:59 | 28.29289 | -81.63217 | 3982 ft | 123 kts | 241° |
| 2026-04-22 00:59 | 28.28855 | -81.64022 | 4040 ft | 120 kts | 232° |
| 2026-04-22 01:00 | 28.28360 | -81.64877 | 3850 ft | 132 kts | 233° |
| 2026-04-22 01:00 | 28.27873 | -81.65762 | 3716 ft | 139 kts | 233° |
| 2026-04-22 01:00 | 28.27394 | -81.66719 | 3573 ft | 138 kts | 240° |
| 2026-04-22 01:00 | 28.26985 | -81.67684 | 3472 ft | 136 kts | 239° |
| 2026-04-22 01:01 | 28.26543 | -81.68664 | 3175 ft | 143 kts | 239° |
| 2026-04-22 01:01 | 28.26106 | -81.69670 | 2873 ft | 143 kts | 241° |
| 2026-04-22 01:01 | 28.25683 | -81.70724 | 2603 ft | 148 kts | 242° |
| 2026-04-22 01:01 | 28.25272 | -81.71765 | 2342 ft | 134 kts | 242° |
| 2026-04-22 01:02 | 28.24946 | -81.72698 | 2251 ft | 129 kts | 245° |
| 2026-04-22 01:02 | 28.24621 | -81.73721 | 1824 ft | 141 kts | 249° |
| 2026-04-22 01:02 | 28.24336 | -81.74746 | 1454 ft | 128 kts | 251° |
| 2026-04-22 01:02 | 28.24084 | -81.75642 | 1308 ft | 119 kts | 249° |
| 2026-04-22 01:03 | 28.23800 | -81.76550 | 1181 ft | 125 kts | 245° |
| 2026-04-22 01:03 | 28.23492 | -81.77431 | 1132 ft | 116 kts | 246° |
| 2026-04-22 01:03 | 28.23194 | -81.78265 | 1121 ft | 114 kts | 249° |
| 2026-04-22 01:03 | 28.22932 | -81.79127 | 999 ft | 109 kts | 247° |
| 2026-04-22 01:04 | 28.22716 | -81.79874 | 1052 ft | 89 kts | 248° |
| 2026-04-22 01:04 | 28.22532 | -81.80530 | 1167 ft | 94 kts | 247° |
| 2026-04-22 01:04 | 28.22280 | -81.81301 | 1239 ft | 110 kts | 247° |
| 2026-04-22 01:04 | 28.22006 | -81.82133 | 1355 ft | 115 kts | 244° |
| 2026-04-22 01:05 | 28.21694 | -81.82995 | 1417 ft | 122 kts | 243° |
| 2026-04-22 01:05 | 28.21336 | -81.83839 | 1579 ft | 111 kts | 234° |
| 2026-04-22 01:05 | 28.20792 | -81.84418 | 1636 ft | 111 kts | 194° |
| 2026-04-22 01:05 | 28.20084 | -81.84719 | 1775 ft | 108 kts | 187° |
| 2026-04-22 01:06 | 28.19342 | -81.85010 | 1861 ft | 116 kts | 188° |
| 2026-04-22 01:06 | 28.18568 | -81.85308 | 1777 ft | 117 kts | 190° |
| 2026-04-22 01:06 | 28.17825 | -81.85611 | 1865 ft | 111 kts | 191° |
| 2026-04-22 01:06 | 28.17092 | -81.85924 | 1930 ft | 113 kts | 191° |
| 2026-04-22 01:07 | 28.16349 | -81.86214 | 1982 ft | 113 kts | 188° |
| 2026-04-22 01:07 | 28.15606 | -81.86501 | 2047 ft | 113 kts | 189° |
| 2026-04-22 01:07 | 28.14841 | -81.86780 | 1939 ft | 119 kts | 188° |
| 2026-04-22 01:07 | 28.14095 | -81.87109 | 2070 ft | 115 kts | 194° |
| 2026-04-22 01:08 | 28.13339 | -81.87499 | 2065 ft | 120 kts | 196° |
| 2026-04-22 01:08 | 28.12572 | -81.87835 | 2048 ft | 119 kts | 188° |
| 2026-04-22 01:08 | 28.11786 | -81.88297 | 1809 ft | 137 kts | 206° |
| 2026-04-22 01:08 | 28.11007 | -81.88918 | 1555 ft | 135 kts | 210° |
| 2026-04-22 01:09 | 28.10306 | -81.89593 | 1460 ft | 129 kts | 215° |
| 2026-04-22 01:09 | 28.09658 | -81.90249 | 1450 ft | 125 kts | 214° |
| 2026-04-22 01:09 | 28.08810 | -81.91130 | 1426 ft | 123 kts | 220° |
| 2026-04-22 01:09 | 28.08284 | -81.91898 | 1458 ft | 122 kts | 228° |
| 2026-04-22 01:10 | 28.07789 | -81.92682 | 1476 ft | 125 kts | 230° |
| 2026-04-22 01:10 | 28.07281 | -81.93480 | 1465 ft | 125 kts | 227° |
| 2026-04-22 01:10 | 28.06773 | -81.94282 | 1417 ft | 125 kts | 229° |
| 2026-04-22 01:10 | 28.06278 | -81.95069 | 1395 ft | 127 kts | 226° |
| 2026-04-22 01:11 | 28.05739 | -81.95867 | 1345 ft | 129 kts | 235° |
| 2026-04-22 01:11 | 28.05236 | -81.96702 | 1324 ft | 125 kts | 226° |
| 2026-04-22 01:11 | 28.04740 | -81.97492 | 1303 ft | 125 kts | 233° |
| 2026-04-22 01:11 | 28.04356 | -81.98415 | 1236 ft | 129 kts | 247° |
| 2026-04-22 01:12 | 28.04073 | -81.99363 | 1224 ft | 130 kts | 251° |
| 2026-04-22 01:12 | 28.03764 | -82.00333 | 1196 ft | 129 kts | 242° |
| 2026-04-22 01:12 | 28.03396 | -82.01241 | 1189 ft | 128 kts | 240° |
| 2026-04-22 01:12 | 28.03063 | -82.02145 | 1237 ft | 123 kts | 258° |
| 2026-04-22 01:13 | 28.03258 | -82.02951 | 1515 ft | 102 kts | 328° |
| 2026-04-22 01:13 | 28.03925 | -82.03109 | 1461 ft | 94 kts | 33° |
| 2026-04-22 01:13 | 28.04450 | -82.02651 | 1413 ft | 98 kts | 55° |
| 2026-04-22 01:13 | 28.04871 | -82.02071 | 1403 ft | 98 kts | 58° |
| 2026-04-22 01:14 | 28.05265 | -82.01443 | 1430 ft | 96 kts | 63° |
| 2026-04-22 01:14 | 28.05578 | -82.00776 | 1457 ft | 97 kts | 59° |
| 2026-04-22 01:14 | 28.06161 | -82.00262 | 1481 ft | 100 kts | 43° |
| 2026-04-22 01:14 | 28.07390 | -81.98794 | 1299 ft | 103 kts | 60° |
| 2026-04-22 01:15 | 28.09035 | -81.96419 | 850 ft | 106 kts | 58° |
| 2026-04-22 01:15 | 28.09440 | -81.95777 | 956 ft | 96 kts | 57° |
| 2026-04-22 01:15 | 28.09922 | -81.95250 | 961 ft | 99 kts | 44° |
| 2026-04-22 01:15 | 28.10498 | -81.94780 | 948 ft | 101 kts | 40° |
| 2026-04-22 01:16 | 28.11062 | -81.94324 | 1018 ft | 93 kts | 47° |
| 2026-04-22 01:16 | 28.11535 | -81.93849 | 1070 ft | 95 kts | 50° |
| 2026-04-22 01:16 | 28.12019 | -81.93304 | 1014 ft | 99 kts | 51° |
| 2026-04-22 01:16 | 28.12480 | -81.92729 | 1017 ft | 98 kts | 53° |
| 2026-04-22 01:17 | 28.12918 | -81.92148 | 1049 ft | 96 kts | 56° |
| 2026-04-22 01:17 | 28.13333 | -81.91535 | 965 ft | 98 kts | 60° |
| 2026-04-22 01:17 | 28.13693 | -81.90892 | 965 ft | 97 kts | 64° |
| 2026-04-22 01:17 | 28.13975 | -81.90179 | 928 ft | 98 kts | 77° |
| 2026-04-22 01:18 | 28.14137 | -81.89512 | 1138 ft | 82 kts | 75° |
| 2026-04-22 01:18 | 28.14314 | -81.88907 | 1178 ft | 85 kts | 70° |
| 2026-04-22 01:18 | 28.14525 | -81.88238 | 1142 ft | 94 kts | 75° |
| 2026-04-22 01:18 | 28.14713 | -81.87524 | 1140 ft | 94 kts | 76° |
| 2026-04-22 01:19 | 28.14881 | -81.86798 | 1145 ft | 94 kts | 77° |
| 2026-04-22 01:19 | 28.15008 | -81.86334 | 1193 ft | 92 kts | 75° |
| 2026-04-22 01:19 | 28.15210 | -81.85659 | 1281 ft | 87 kts | 72° |
| 2026-04-22 01:19 | 28.15497 | -81.84817 | 1336 ft | 86 kts | 69° |
| 2026-04-22 01:20 | 28.15627 | -81.84376 | 1332 ft | 88 kts | 76° |
| 2026-04-22 01:20 | 28.15703 | -81.83694 | 1371 ft | 86 kts | 83° |
| 2026-04-22 01:20 | 28.15768 | -81.83011 | 1365 ft | 89 kts | 87° |
| 2026-04-22 01:20 | 28.15557 | -81.82394 | 1439 ft | 87 kts | 128° |
| 2026-04-22 01:21 | 28.14976 | -81.82097 | 1370 ft | 106 kts | 167° |
| 2026-04-22 01:21 | 28.14224 | -81.82203 | 1361 ft | 111 kts | 187° |
| 2026-04-22 01:21 | 28.13485 | -81.82427 | 1372 ft | 110 kts | 187° |
| 2026-04-22 01:21 | 28.12763 | -81.82681 | 1402 ft | 106 kts | 193° |
| 2026-04-22 01:22 | 28.12061 | -81.83004 | 1279 ft | 113 kts | 188° |
| 2026-04-22 01:22 | 28.11329 | -81.83275 | 1363 ft | 110 kts | 190° |
| 2026-04-22 01:22 | 28.10670 | -81.83762 | 1347 ft | 122 kts | 225° |
| 2026-04-22 01:22 | 28.10196 | -81.84560 | 1200 ft | 120 kts | 223° |
| 2026-04-22 01:23 | 28.09669 | -81.85220 | 1205 ft | 111 kts | 226° |
| 2026-04-22 01:23 | 28.09238 | -81.86007 | 1181 ft | 121 kts | 238° |
| 2026-04-22 01:23 | 28.08881 | -81.86858 | 1174 ft | 119 kts | 240° |
| 2026-04-22 01:23 | 28.08550 | -81.87680 | 1136 ft | 113 kts | 255° |
| 2026-04-22 01:24 | 28.08512 | -81.88568 | 1231 ft | 115 kts | 268° |
| 2026-04-22 01:24 | 28.08468 | -81.89481 | 1288 ft | 117 kts | 269° |
| 2026-04-22 01:24 | 28.08452 | -81.90417 | 1316 ft | 120 kts | 268° |
| 2026-04-22 01:24 | 28.08452 | -81.91359 | 1350 ft | 114 kts | 259° |
| 2026-04-22 01:25 | 28.08406 | -81.92285 | 1329 ft | 121 kts | 268° |
| 2026-04-22 01:25 | 28.08403 | -81.93211 | 1291 ft | 114 kts | 269° |
| 2026-04-22 01:25 | 28.08423 | -81.94046 | 1193 ft | 99 kts | 271° |
| 2026-04-22 01:25 | 28.08419 | -81.94840 | 1200 ft | 103 kts | 269° |
| 2026-04-22 01:26 | 28.08388 | -81.95681 | 1287 ft | 110 kts | 264° |
| 2026-04-22 01:26 | 28.08221 | -81.96556 | 1298 ft | 115 kts | 246° |
| 2026-04-22 01:26 | 28.07920 | -81.97365 | 1370 ft | 113 kts | 240° |
| 2026-04-22 01:26 | 28.07524 | -81.98154 | 1306 ft | 118 kts | 232° |
| 2026-04-22 01:27 | 28.07005 | -81.98885 | 1239 ft | 117 kts | 220° |
| 2026-04-22 01:27 | 28.06459 | -81.99527 | 1310 ft | 108 kts | 218° |
| 2026-04-22 01:27 | 28.05972 | -82.00145 | 1352 ft | 110 kts | 228° |
| 2026-04-22 01:27 | 28.05563 | -82.00901 | 1313 ft | 113 kts | 230° |
| 2026-04-22 01:28 | 28.05092 | -82.01632 | 1114 ft | 129 kts | 231° |
| 2026-04-22 01:28 | 28.04580 | -82.02289 | 1272 ft | 109 kts | 206° |
| 2026-04-22 01:28 | 28.03902 | -82.02597 | 1366 ft | 103 kts | 178° |
| 2026-04-22 01:28 | 28.03182 | -82.02656 | 1368 ft | 108 kts | 172° |
| 2026-04-22 01:29 | 28.02435 | -82.02719 | 1282 ft | 107 kts | 175° |
| 2026-04-22 01:29 | 28.01746 | -82.02858 | 1114 ft | 97 kts | 178° |
| 2026-04-22 01:29 | 28.01110 | -82.02983 | 1033 ft | 91 kts | 190° |
| 2026-04-22 01:29 | 28.00554 | -82.03277 | 940 ft | 90 kts | 234° |
| 2026-04-22 01:30 | 28.00362 | -82.03951 | 909 ft | 84 kts | 262° |
| 2026-04-22 01:30 | 28.00300 | -82.04636 | 930 ft | 96 kts | 240° |
| 2026-04-22 01:30 | 27.99788 | -82.04886 | 951 ft | 85 kts | 162° |
| 2026-04-22 01:30 | 27.99206 | -82.04696 | 787 ft | 85 kts | 144° |
| 2026-04-22 01:31 | 27.98924 | -82.04217 | 536 ft | 73 kts | 91° |
| 2026-04-22 01:31 | 27.98931 | -82.03733 | 334 ft | 52 kts | 91° |
| 2026-04-22 01:31 | 27.98932 | -82.03306 | 284 ft | 58 kts | 89° |
| 2026-04-22 01:31 | 27.98931 | -82.02865 | 193 ft | 52 kts | 90° |
| 2026-04-22 01:32 | 27.98932 | -82.02557 | 137 ft | 27 kts | 90° |
| 2026-04-22 01:32 | 27.98930 | -82.02383 | 140 ft | 24 kts | 90° |
| 2026-04-22 01:32 | 27.98925 | -82.02164 | 140 ft | 35 kts | 90° |
| 2026-04-22 01:32 | 27.98926 | -82.01874 | 143 ft | 33 kts | 89° |
| 2026-04-22 01:33 | 27.98927 | -82.01633 | 141 ft | 28 kts | 91° |
| 2026-04-22 01:33 | 27.98928 | -82.01432 | 143 ft | 23 kts | 91° |
| 2026-04-22 01:33 | 27.98928 | -82.01267 | 143 ft | 20 kts | 88° |
| 2026-04-22 01:33 | 27.98930 | -82.01113 | 141 ft | 19 kts | 90° |
| 2026-04-22 01:34 | 27.98928 | -82.00981 | 143 ft | 15 kts | 91° |
| 2026-04-22 01:34 | 27.98930 | -82.00877 | 145 ft | 12 kts | 90° |
| 2026-04-22 01:34 | 27.98919 | -82.00780 | 145 ft | 13 kts | 116° |
| 2026-04-22 01:34 | 27.98871 | -82.00759 | 144 ft | 8 kts | 179° |
| 2026-04-22 01:35 | 27.98803 | -82.00756 | 142 ft | 11 kts | 178° |
| 2026-04-22 01:35 | 27.98722 | -82.00751 | 141 ft | 12 kts | 174° |